sensor_id;sensor_type;location;lat;lon;timestamp;temperature;humidity
34985;DHT22;21190;58.750;17.004;2022-09-24T00:01:32;12.40;99.90
34985;DHT22;21190;58.750;17.004;2022-09-24T00:04:01;12.40;99.90
34985;DHT22;21190;58.750;17.004;2022-09-24T00:06:33;12.40;99.90
34985;DHT22;21190;58.750;17.004;2022-09-24T00:09:02;12.50;99.90
34985;DHT22;21190;58.750;17.004;2022-09-24T00:11:29;12.40;99.90
34985;DHT22;21190;58.750;17.004;2022-09-24T00:13:57;12.40;99.90
34985;DHT22;21190;58.750;17.004;2022-09-24T00:16:26;12.50;99.90
34985;DHT22;21190;58.750;17.004;2022-09-24T00:18:53;12.40;99.90
34985;DHT22;21190;58.750;17.004;2022-09-24T00:21:21;12.40;99.90
34985;DHT22;21190;58.750;17.004;2022-09-24T00:23:50;12.40;99.90
34985;DHT22;21190;58.750;17.004;2022-09-24T00:26:17;12.40;99.90
34985;DHT22;21190;58.750;17.004;2022-09-24T00:29:03;12.40;99.90
34985;DHT22;21190;58.750;17.004;2022-09-24T00:31:31;12.40;99.90
34985;DHT22;21190;58.750;17.004;2022-09-24T00:33:58;12.40;99.90
34985;DHT22;21190;58.750;17.004;2022-09-24T00:36:26;12.30;99.90
34985;DHT22;21190;58.750;17.004;2022-09-24T00:38:55;12.40;99.90
34985;DHT22;21190;58.750;17.004;2022-09-24T00:41:24;12.40;99.90
34985;DHT22;21190;58.750;17.004;2022-09-24T00:43:51;12.40;99.90
34985;DHT22;21190;58.750;17.004;2022-09-24T00:48:49;12.20;99.90
34985;DHT22;21190;58.750;17.004;2022-09-24T00:51:18;12.20;99.90
34985;DHT22;21190;58.750;17.004;2022-09-24T00:53:47;12.20;99.90
34985;DHT22;21190;58.750;17.004;2022-09-24T00:56:15;12.20;99.90
34985;DHT22;21190;58.750;17.004;2022-09-24T00:58:43;12.20;99.90
34985;DHT22;21190;58.750;17.004;2022-09-24T01:01:12;12.30;99.90
34985;DHT22;21190;58.750;17.004;2022-09-24T01:03:39;12.30;99.90
34985;DHT22;21190;58.750;17.004;2022-09-24T01:06:08;12.20;99.90
34985;DHT22;21190;58.750;17.004;2022-09-24T01:08:35;12.20;99.90
34985;DHT22;21190;58.750;17.004;2022-09-24T01:21:44;12.30;99.90
34985;DHT22;21190;58.750;17.004;2022-09-24T01:24:23;12.30;99.90
34985;DHT22;21190;58.750;17.004;2022-09-24T01:27:05;12.30;99.90
34985;DHT22;21190;58.750;17.004;2022-09-24T01:32:21;12.30;99.90
34985;DHT22;21190;58.750;17.004;2022-09-24T01:37:33;12.30;99.90
34985;DHT22;21190;58.750;17.004;2022-09-24T01:40:02;12.30;99.90
34985;DHT22;21190;58.750;17.004;2022-09-24T01:42:30;12.20;99.90
34985;DHT22;21190;58.750;17.004;2022-09-24T01:44:58;12.20;99.90
34985;DHT22;21190;58.750;17.004;2022-09-24T01:47:32;12.20;99.90
34985;DHT22;21190;58.750;17.004;2022-09-24T01:50:01;12.20;99.90
34985;DHT22;21190;58.750;17.004;2022-09-24T01:52:30;12.10;99.90
34985;DHT22;21190;58.750;17.004;2022-09-24T01:55:00;12.10;99.90
34985;DHT22;21190;58.750;17.004;2022-09-24T01:57:28;12.10;99.90
34985;DHT22;21190;58.750;17.004;2022-09-24T02:00:09;12.00;99.90
34985;DHT22;21190;58.750;17.004;2022-09-24T02:08:02;11.90;99.90
34985;DHT22;21190;58.750;17.004;2022-09-24T02:10:31;11.90;99.90
34985;DHT22;21190;58.750;17.004;2022-09-24T02:13:04;11.90;99.90
34985;DHT22;21190;58.750;17.004;2022-09-24T02:15:33;11.90;99.90
34985;DHT22;21190;58.750;17.004;2022-09-24T02:18:04;11.90;99.90
34985;DHT22;21190;58.750;17.004;2022-09-24T02:20:32;11.90;99.90
34985;DHT22;21190;58.750;17.004;2022-09-24T02:23:00;11.90;99.90
34985;DHT22;21190;58.750;17.004;2022-09-24T02:25:30;11.90;99.90
34985;DHT22;21190;58.750;17.004;2022-09-24T02:27:58;11.90;99.90
34985;DHT22;21190;58.750;17.004;2022-09-24T02:30:25;11.90;99.90
34985;DHT22;21190;58.750;17.004;2022-09-24T02:32:52;11.80;99.90
34985;DHT22;21190;58.750;17.004;2022-09-24T02:35:20;11.80;99.90
34985;DHT22;21190;58.750;17.004;2022-09-24T02:37:47;11.90;99.90
34985;DHT22;21190;58.750;17.004;2022-09-24T02:40:14;11.80;99.90
34985;DHT22;21190;58.750;17.004;2022-09-24T02:42:41;11.80;99.90
34985;DHT22;21190;58.750;17.004;2022-09-24T02:45:09;11.80;99.90
34985;DHT22;21190;58.750;17.004;2022-09-24T02:47:37;11.80;99.90
34985;DHT22;21190;58.750;17.004;2022-09-24T02:50:04;11.80;99.90
34985;DHT22;21190;58.750;17.004;2022-09-24T02:52:31;11.80;99.90
34985;DHT22;21190;58.750;17.004;2022-09-24T02:54:58;11.80;99.90
34985;DHT22;21190;58.750;17.004;2022-09-24T02:57:25;11.80;99.90
34985;DHT22;21190;58.750;17.004;2022-09-24T02:59:52;11.80;99.90
34985;DHT22;21190;58.750;17.004;2022-09-24T03:02:19;11.80;99.90
34985;DHT22;21190;58.750;17.004;2022-09-24T03:04:46;11.80;99.90
34985;DHT22;21190;58.750;17.004;2022-09-24T03:07:13;11.80;99.90
34985;DHT22;21190;58.750;17.004;2022-09-24T03:09:40;11.80;99.90
34985;DHT22;21190;58.750;17.004;2022-09-24T03:12:07;11.80;99.90
34985;DHT22;21190;58.750;17.004;2022-09-24T03:14:35;11.80;99.90
34985;DHT22;21190;58.750;17.004;2022-09-24T03:17:02;11.80;99.90
34985;DHT22;21190;58.750;17.004;2022-09-24T03:19:29;11.80;99.90
34985;DHT22;21190;58.750;17.004;2022-09-24T03:21:56;11.70;99.90
34985;DHT22;21190;58.750;17.004;2022-09-24T03:24:22;11.80;99.90
34985;DHT22;21190;58.750;17.004;2022-09-24T03:26:50;11.70;99.90
34985;DHT22;21190;58.750;17.004;2022-09-24T03:29:16;11.80;99.90
34985;DHT22;21190;58.750;17.004;2022-09-24T03:32:04;11.70;99.90
34985;DHT22;21190;58.750;17.004;2022-09-24T03:34:30;11.70;99.90
34985;DHT22;21190;58.750;17.004;2022-09-24T03:36:57;11.60;99.90
34985;DHT22;21190;58.750;17.004;2022-09-24T03:39:24;11.60;99.90
34985;DHT22;21190;58.750;17.004;2022-09-24T03:41:51;11.70;99.90
34985;DHT22;21190;58.750;17.004;2022-09-24T03:44:18;11.70;99.90
34985;DHT22;21190;58.750;17.004;2022-09-24T03:46:45;11.70;99.90
34985;DHT22;21190;58.750;17.004;2022-09-24T03:49:12;11.70;99.90
34985;DHT22;21190;58.750;17.004;2022-09-24T03:51:39;11.60;99.90
34985;DHT22;21190;58.750;17.004;2022-09-24T03:54:06;11.70;99.90
34985;DHT22;21190;58.750;17.004;2022-09-24T03:56:33;11.70;99.90
34985;DHT22;21190;58.750;17.004;2022-09-24T03:59:00;11.70;99.90
34985;DHT22;21190;58.750;17.004;2022-09-24T04:01:26;11.70;99.90
34985;DHT22;21190;58.750;17.004;2022-09-24T04:03:56;11.70;99.90
34985;DHT22;21190;58.750;17.004;2022-09-24T04:06:23;11.70;99.90
34985;DHT22;21190;58.750;17.004;2022-09-24T04:08:52;11.70;99.90
34985;DHT22;21190;58.750;17.004;2022-09-24T04:11:19;11.70;99.90
34985;DHT22;21190;58.750;17.004;2022-09-24T04:13:46;11.70;99.90
34985;DHT22;21190;58.750;17.004;2022-09-24T04:16:14;11.70;99.90
34985;DHT22;21190;58.750;17.004;2022-09-24T04:18:41;11.70;99.90
34985;DHT22;21190;58.750;17.004;2022-09-24T04:21:08;11.70;99.90
34985;DHT22;21190;58.750;17.004;2022-09-24T04:23:35;11.70;99.90
34985;DHT22;21190;58.750;17.004;2022-09-24T04:26:02;11.70;99.90
34985;DHT22;21190;58.750;17.004;2022-09-24T04:28:29;11.60;99.90
34985;DHT22;21190;58.750;17.004;2022-09-24T04:30:56;11.70;99.90
34985;DHT22;21190;58.750;17.004;2022-09-24T04:33:23;11.60;99.90
34985;DHT22;21190;58.750;17.004;2022-09-24T04:35:50;11.60;99.90
34985;DHT22;21190;58.750;17.004;2022-09-24T04:38:17;11.60;99.90
34985;DHT22;21190;58.750;17.004;2022-09-24T04:40:47;11.70;99.90
34985;DHT22;21190;58.750;17.004;2022-09-24T04:43:14;11.60;99.90
34985;DHT22;21190;58.750;17.004;2022-09-24T04:45:41;11.60;99.90
34985;DHT22;21190;58.750;17.004;2022-09-24T04:48:10;11.60;99.90
34985;DHT22;21190;58.750;17.004;2022-09-24T04:50:37;11.60;99.90
34985;DHT22;21190;58.750;17.004;2022-09-24T04:53:11;11.60;99.90
34985;DHT22;21190;58.750;17.004;2022-09-24T04:55:38;11.60;99.90
34985;DHT22;21190;58.750;17.004;2022-09-24T04:58:07;11.60;99.90
34985;DHT22;21190;58.750;17.004;2022-09-24T05:00:34;11.60;99.90
34985;DHT22;21190;58.750;17.004;2022-09-24T05:03:01;11.60;99.90
34985;DHT22;21190;58.750;17.004;2022-09-24T05:05:32;11.60;99.90
34985;DHT22;21190;58.750;17.004;2022-09-24T05:07:59;11.60;99.90
34985;DHT22;21190;58.750;17.004;2022-09-24T05:10:28;11.50;99.90
34985;DHT22;21190;58.750;17.004;2022-09-24T05:12:55;11.50;99.90
34985;DHT22;21190;58.750;17.004;2022-09-24T05:15:22;11.50;99.90
34985;DHT22;21190;58.750;17.004;2022-09-24T05:17:49;11.40;99.90
34985;DHT22;21190;58.750;17.004;2022-09-24T05:20:16;11.40;99.90
34985;DHT22;21190;58.750;17.004;2022-09-24T05:22:43;11.40;99.90
34985;DHT22;21190;58.750;17.004;2022-09-24T05:25:11;11.40;99.90
34985;DHT22;21190;58.750;17.004;2022-09-24T05:27:45;11.40;99.90
34985;DHT22;21190;58.750;17.004;2022-09-24T05:30:12;11.40;99.90
34985;DHT22;21190;58.750;17.004;2022-09-24T05:32:40;11.30;99.90
34985;DHT22;21190;58.750;17.004;2022-09-24T05:35:07;11.30;99.90
34985;DHT22;21190;58.750;17.004;2022-09-24T05:37:35;11.40;99.90
34985;DHT22;21190;58.750;17.004;2022-09-24T05:40:03;11.40;99.90
34985;DHT22;21190;58.750;17.004;2022-09-24T05:42:49;11.40;99.90
34985;DHT22;21190;58.750;17.004;2022-09-24T05:45:16;11.40;99.90
34985;DHT22;21190;58.750;17.004;2022-09-24T05:47:44;11.40;99.90
34985;DHT22;21190;58.750;17.004;2022-09-24T05:50:12;11.40;99.90
34985;DHT22;21190;58.750;17.004;2022-09-24T05:52:39;11.40;99.90
34985;DHT22;21190;58.750;17.004;2022-09-24T05:55:06;11.40;99.90
34985;DHT22;21190;58.750;17.004;2022-09-24T05:57:33;11.40;99.90
34985;DHT22;21190;58.750;17.004;2022-09-24T06:00:00;11.40;99.90
34985;DHT22;21190;58.750;17.004;2022-09-24T06:02:27;11.40;99.90
34985;DHT22;21190;58.750;17.004;2022-09-24T06:04:54;11.40;99.90
34985;DHT22;21190;58.750;17.004;2022-09-24T06:07:21;11.40;99.90
34985;DHT22;21190;58.750;17.004;2022-09-24T06:09:48;11.40;99.90
34985;DHT22;21190;58.750;17.004;2022-09-24T06:12:15;11.40;99.90
34985;DHT22;21190;58.750;17.004;2022-09-24T06:14:43;11.40;99.90
34985;DHT22;21190;58.750;17.004;2022-09-24T06:17:10;11.40;99.90
34985;DHT22;21190;58.750;17.004;2022-09-24T06:19:37;11.50;99.90
34985;DHT22;21190;58.750;17.004;2022-09-24T06:22:04;11.50;99.90
34985;DHT22;21190;58.750;17.004;2022-09-24T06:24:31;11.50;99.90
34985;DHT22;21190;58.750;17.004;2022-09-24T06:26:58;11.50;99.90
34985;DHT22;21190;58.750;17.004;2022-09-24T06:29:25;11.60;99.90
34985;DHT22;21190;58.750;17.004;2022-09-24T06:31:52;11.50;99.90
34985;DHT22;21190;58.750;17.004;2022-09-24T06:34:19;11.50;99.90
34985;DHT22;21190;58.750;17.004;2022-09-24T06:36:46;11.60;99.90
34985;DHT22;21190;58.750;17.004;2022-09-24T06:39:13;11.60;99.90
34985;DHT22;21190;58.750;17.004;2022-09-24T06:41:40;11.50;99.90
34985;DHT22;21190;58.750;17.004;2022-09-24T06:44:06;11.60;99.90
34985;DHT22;21190;58.750;17.004;2022-09-24T06:46:33;11.60;99.90
34985;DHT22;21190;58.750;17.004;2022-09-24T06:49:00;11.60;99.90
34985;DHT22;21190;58.750;17.004;2022-09-24T06:51:27;11.60;99.90
34985;DHT22;21190;58.750;17.004;2022-09-24T06:53:54;11.60;99.90
34985;DHT22;21190;58.750;17.004;2022-09-24T06:56:21;11.70;99.90
34985;DHT22;21190;58.750;17.004;2022-09-24T06:58:48;11.60;99.90
34985;DHT22;21190;58.750;17.004;2022-09-24T07:01:15;11.60;99.90
34985;DHT22;21190;58.750;17.004;2022-09-24T07:03:42;11.60;99.90
34985;DHT22;21190;58.750;17.004;2022-09-24T07:06:09;11.60;99.90
34985;DHT22;21190;58.750;17.004;2022-09-24T07:08:36;11.70;99.90
34985;DHT22;21190;58.750;17.004;2022-09-24T07:11:03;11.70;99.90
34985;DHT22;21190;58.750;17.004;2022-09-24T07:13:30;11.70;99.90
34985;DHT22;21190;58.750;17.004;2022-09-24T07:15:57;11.80;99.90
34985;DHT22;21190;58.750;17.004;2022-09-24T07:18:24;11.80;99.90
34985;DHT22;21190;58.750;17.004;2022-09-24T07:20:51;11.90;99.90
34985;DHT22;21190;58.750;17.004;2022-09-24T07:23:19;11.90;99.90
34985;DHT22;21190;58.750;17.004;2022-09-24T07:25:47;12.00;99.90
34985;DHT22;21190;58.750;17.004;2022-09-24T07:28:14;12.00;99.90
34985;DHT22;21190;58.750;17.004;2022-09-24T07:30:41;12.10;99.90
34985;DHT22;21190;58.750;17.004;2022-09-24T07:33:08;12.10;99.90
34985;DHT22;21190;58.750;17.004;2022-09-24T07:35:37;12.10;99.90
34985;DHT22;21190;58.750;17.004;2022-09-24T07:38:06;12.20;99.90
34985;DHT22;21190;58.750;17.004;2022-09-24T07:40:33;12.20;99.90
34985;DHT22;21190;58.750;17.004;2022-09-24T07:43:00;12.20;99.90
34985;DHT22;21190;58.750;17.004;2022-09-24T07:45:27;12.20;99.90
34985;DHT22;21190;58.750;17.004;2022-09-24T07:47:56;12.30;99.90
34985;DHT22;21190;58.750;17.004;2022-09-24T07:50:23;12.30;99.90
34985;DHT22;21190;58.750;17.004;2022-09-24T07:52:50;12.30;99.90
34985;DHT22;21190;58.750;17.004;2022-09-24T07:55:18;12.40;99.90
34985;DHT22;21190;58.750;17.004;2022-09-24T07:57:46;12.40;99.90
34985;DHT22;21190;58.750;17.004;2022-09-24T08:00:15;12.50;99.90
34985;DHT22;21190;58.750;17.004;2022-09-24T08:02:45;12.50;99.90
34985;DHT22;21190;58.750;17.004;2022-09-24T08:05:15;12.60;99.90
34985;DHT22;21190;58.750;17.004;2022-09-24T08:07:50;12.60;99.90
34985;DHT22;21190;58.750;17.004;2022-09-24T08:10:18;12.60;99.90
34985;DHT22;21190;58.750;17.004;2022-09-24T08:12:45;12.70;99.90
34985;DHT22;21190;58.750;17.004;2022-09-24T08:15:12;12.60;99.90
34985;DHT22;21190;58.750;17.004;2022-09-24T08:17:39;12.70;99.90
34985;DHT22;21190;58.750;17.004;2022-09-24T08:20:06;12.70;99.90
34985;DHT22;21190;58.750;17.004;2022-09-24T08:22:33;12.70;99.90
34985;DHT22;21190;58.750;17.004;2022-09-24T08:25:01;12.80;99.90
34985;DHT22;21190;58.750;17.004;2022-09-24T08:27:29;12.80;99.90
34985;DHT22;21190;58.750;17.004;2022-09-24T08:29:58;12.90;99.90
34985;DHT22;21190;58.750;17.004;2022-09-24T08:32:26;13.00;99.90
34985;DHT22;21190;58.750;17.004;2022-09-24T08:34:54;13.10;99.90
34985;DHT22;21190;58.750;17.004;2022-09-24T08:37:21;13.10;99.90
34985;DHT22;21190;58.750;17.004;2022-09-24T08:39:48;13.10;99.90
34985;DHT22;21190;58.750;17.004;2022-09-24T08:44:45;13.30;99.90
34985;DHT22;21190;58.750;17.004;2022-09-24T08:47:35;13.40;99.90
34985;DHT22;21190;58.750;17.004;2022-09-24T08:50:16;13.50;99.90
34985;DHT22;21190;58.750;17.004;2022-09-24T08:57:49;13.70;99.90
34985;DHT22;21190;58.750;17.004;2022-09-24T09:00:21;13.80;99.90
34985;DHT22;21190;58.750;17.004;2022-09-24T09:02:57;13.90;99.90
34985;DHT22;21190;58.750;17.004;2022-09-24T09:08:34;14.10;99.90
34985;DHT22;21190;58.750;17.004;2022-09-24T09:11:11;14.10;99.90
34985;DHT22;21190;58.750;17.004;2022-09-24T09:13:39;14.10;99.90
34985;DHT22;21190;58.750;17.004;2022-09-24T09:16:21;14.20;99.90
34985;DHT22;21190;58.750;17.004;2022-09-24T09:18:49;14.20;99.90
34985;DHT22;21190;58.750;17.004;2022-09-24T09:21:22;14.30;99.90
34985;DHT22;21190;58.750;17.004;2022-09-24T09:23:50;14.40;99.90
34985;DHT22;21190;58.750;17.004;2022-09-24T09:26:18;14.50;99.90
34985;DHT22;21190;58.750;17.004;2022-09-24T09:28:46;14.60;99.90
34985;DHT22;21190;58.750;17.004;2022-09-24T09:31:17;14.80;99.90
34985;DHT22;21190;58.750;17.004;2022-09-24T09:39:43;15.00;99.90
34985;DHT22;21190;58.750;17.004;2022-09-24T09:42:30;15.20;99.90
34985;DHT22;21190;58.750;17.004;2022-09-24T09:47:44;15.40;99.90
34985;DHT22;21190;58.750;17.004;2022-09-24T09:52:40;15.50;99.90
34985;DHT22;21190;58.750;17.004;2022-09-24T09:55:07;15.60;99.90
34985;DHT22;21190;58.750;17.004;2022-09-24T09:57:45;15.60;99.90
34985;DHT22;21190;58.750;17.004;2022-09-24T10:00:22;15.70;99.90
34985;DHT22;21190;58.750;17.004;2022-09-24T10:02:51;15.70;99.90
34985;DHT22;21190;58.750;17.004;2022-09-24T10:05:20;15.80;99.90
34985;DHT22;21190;58.750;17.004;2022-09-24T10:07:55;15.80;99.90
34985;DHT22;21190;58.750;17.004;2022-09-24T10:10:26;15.70;99.90
34985;DHT22;21190;58.750;17.004;2022-09-24T10:13:04;15.70;99.90
34985;DHT22;21190;58.750;17.004;2022-09-24T10:15:33;15.80;99.90
34985;DHT22;21190;58.750;17.004;2022-09-24T10:18:00;15.90;99.90
34985;DHT22;21190;58.750;17.004;2022-09-24T10:20:31;15.80;99.90
34985;DHT22;21190;58.750;17.004;2022-09-24T10:23:00;15.80;99.90
34985;DHT22;21190;58.750;17.004;2022-09-24T10:25:28;15.80;99.90
34985;DHT22;21190;58.750;17.004;2022-09-24T10:27:56;15.90;99.90
34985;DHT22;21190;58.750;17.004;2022-09-24T10:30:51;15.90;99.90
34985;DHT22;21190;58.750;17.004;2022-09-24T10:33:18;15.90;99.90
34985;DHT22;21190;58.750;17.004;2022-09-24T10:35:46;16.00;99.90
34985;DHT22;21190;58.750;17.004;2022-09-24T10:38:14;16.10;99.90
34985;DHT22;21190;58.750;17.004;2022-09-24T10:40:41;16.10;99.90
34985;DHT22;21190;58.750;17.004;2022-09-24T10:43:15;16.10;99.90
34985;DHT22;21190;58.750;17.004;2022-09-24T10:48:13;16.10;99.90
34985;DHT22;21190;58.750;17.004;2022-09-24T10:50:45;16.20;99.90
34985;DHT22;21190;58.750;17.004;2022-09-24T10:53:13;16.20;99.90
34985;DHT22;21190;58.750;17.004;2022-09-24T11:08:52;16.20;99.90
34985;DHT22;21190;58.750;17.004;2022-09-24T11:11:37;16.30;99.90
34985;DHT22;21190;58.750;17.004;2022-09-24T11:14:21;16.30;99.90
34985;DHT22;21190;58.750;17.004;2022-09-24T11:22:28;16.30;99.90
34985;DHT22;21190;58.750;17.004;2022-09-24T11:25:07;16.30;99.90
34985;DHT22;21190;58.750;17.004;2022-09-24T11:27:45;16.40;99.90
34985;DHT22;21190;58.750;17.004;2022-09-24T11:35:18;16.60;99.90
34985;DHT22;21190;58.750;17.004;2022-09-24T11:40:35;16.50;99.90
34985;DHT22;21190;58.750;17.004;2022-09-24T11:45:45;16.50;99.90
34985;DHT22;21190;58.750;17.004;2022-09-24T11:53:16;16.40;99.90
34985;DHT22;21190;58.750;17.004;2022-09-24T11:55:47;16.40;99.90
34985;DHT22;21190;58.750;17.004;2022-09-24T11:58:24;16.50;99.90
34985;DHT22;21190;58.750;17.004;2022-09-24T12:00:53;16.50;99.90
34985;DHT22;21190;58.750;17.004;2022-09-24T12:03:22;16.60;99.90
34985;DHT22;21190;58.750;17.004;2022-09-24T12:08:40;16.70;99.90
34985;DHT22;21190;58.750;17.004;2022-09-24T12:11:11;16.80;99.90
34985;DHT22;21190;58.750;17.004;2022-09-24T12:13:47;16.80;99.90
34985;DHT22;21190;58.750;17.004;2022-09-24T12:16:16;16.80;99.90
34985;DHT22;21190;58.750;17.004;2022-09-24T12:18:46;16.80;99.90
34985;DHT22;21190;58.750;17.004;2022-09-24T12:21:17;16.90;99.90
34985;DHT22;21190;58.750;17.004;2022-09-24T12:23:46;16.90;99.90
34985;DHT22;21190;58.750;17.004;2022-09-24T12:26:15;17.00;99.90
34985;DHT22;21190;58.750;17.004;2022-09-24T12:28:48;17.10;99.90
34985;DHT22;21190;58.750;17.004;2022-09-24T12:34:36;17.10;99.90
34985;DHT22;21190;58.750;17.004;2022-09-24T12:37:10;17.10;99.90
34985;DHT22;21190;58.750;17.004;2022-09-24T12:39:49;17.10;99.90
34985;DHT22;21190;58.750;17.004;2022-09-24T12:42:21;17.20;99.90
34985;DHT22;21190;58.750;17.004;2022-09-24T12:44:58;17.30;99.90
34985;DHT22;21190;58.750;17.004;2022-09-24T12:47:26;17.30;99.90
34985;DHT22;21190;58.750;17.004;2022-09-24T12:50:01;17.40;99.90
34985;DHT22;21190;58.750;17.004;2022-09-24T12:52:34;17.40;99.90
34985;DHT22;21190;58.750;17.004;2022-09-24T12:55:03;17.40;99.90
34985;DHT22;21190;58.750;17.004;2022-09-24T12:57:33;17.40;99.90
34985;DHT22;21190;58.750;17.004;2022-09-24T13:00:01;17.30;99.90
34985;DHT22;21190;58.750;17.004;2022-09-24T13:02:42;17.30;99.90
34985;DHT22;21190;58.750;17.004;2022-09-24T13:07:39;17.30;99.90
34985;DHT22;21190;58.750;17.004;2022-09-24T13:10:10;17.20;99.90
34985;DHT22;21190;58.750;17.004;2022-09-24T13:12:44;17.30;99.90
34985;DHT22;21190;58.750;17.004;2022-09-24T13:15:34;17.30;99.90
34985;DHT22;21190;58.750;17.004;2022-09-24T13:20:26;17.30;99.90
34985;DHT22;21190;58.750;17.004;2022-09-24T13:22:57;17.30;99.90
34985;DHT22;21190;58.750;17.004;2022-09-24T13:25:24;17.30;99.90
34985;DHT22;21190;58.750;17.004;2022-09-24T13:27:56;17.40;99.90
34985;DHT22;21190;58.750;17.004;2022-09-24T13:35:21;17.40;99.90
34985;DHT22;21190;58.750;17.004;2022-09-24T13:37:52;17.30;99.90
34985;DHT22;21190;58.750;17.004;2022-09-24T13:40:21;17.30;99.90
34985;DHT22;21190;58.750;17.004;2022-09-24T13:42:53;17.40;99.90
34985;DHT22;21190;58.750;17.004;2022-09-24T13:45:22;17.30;99.90
34985;DHT22;21190;58.750;17.004;2022-09-24T13:55:33;17.20;99.90
34985;DHT22;21190;58.750;17.004;2022-09-24T13:58:02;17.20;99.90
34985;DHT22;21190;58.750;17.004;2022-09-24T14:00:29;17.10;99.90
34985;DHT22;21190;58.750;17.004;2022-09-24T14:03:01;17.10;99.90
34985;DHT22;21190;58.750;17.004;2022-09-24T14:05:32;17.00;99.90
34985;DHT22;21190;58.750;17.004;2022-09-24T14:10:30;16.90;99.90
34985;DHT22;21190;58.750;17.004;2022-09-24T14:13:01;16.80;99.90
34985;DHT22;21190;58.750;17.004;2022-09-24T14:15:28;16.80;99.90
34985;DHT22;21190;58.750;17.004;2022-09-24T14:17:56;16.60;99.90
34985;DHT22;21190;58.750;17.004;2022-09-24T14:20:23;16.70;99.90
34985;DHT22;21190;58.750;17.004;2022-09-24T14:22:52;16.60;99.90
34985;DHT22;21190;58.750;17.004;2022-09-24T14:25:20;16.60;99.90
34985;DHT22;21190;58.750;17.004;2022-09-24T14:27:49;16.60;99.90
34985;DHT22;21190;58.750;17.004;2022-09-24T14:32:43;16.40;99.90
34985;DHT22;21190;58.750;17.004;2022-09-24T14:38:26;16.40;99.90
34985;DHT22;21190;58.750;17.004;2022-09-24T14:40:40;16.30;99.90
34985;DHT22;21190;58.750;17.004;2022-09-24T14:45:42;16.20;99.90
34985;DHT22;21190;58.750;17.004;2022-09-24T14:48:16;16.20;99.90
34985;DHT22;21190;58.750;17.004;2022-09-24T14:50:44;16.20;99.90
34985;DHT22;21190;58.750;17.004;2022-09-24T14:55:39;16.10;99.90
34985;DHT22;21190;58.750;17.004;2022-09-24T14:58:40;16.10;99.90
34985;DHT22;21190;58.750;17.004;2022-09-24T15:01:04;16.00;99.90
34985;DHT22;21190;58.750;17.004;2022-09-24T15:03:37;16.00;99.90
34985;DHT22;21190;58.750;17.004;2022-09-24T15:06:05;15.90;99.90
34985;DHT22;21190;58.750;17.004;2022-09-24T15:08:33;15.90;99.90
34985;DHT22;21190;58.750;17.004;2022-09-24T15:11:03;15.90;99.90
34985;DHT22;21190;58.750;17.004;2022-09-24T15:18:27;15.90;99.90
34985;DHT22;21190;58.750;17.004;2022-09-24T15:20:54;15.80;99.90
34985;DHT22;21190;58.750;17.004;2022-09-24T15:23:24;15.90;99.90
34985;DHT22;21190;58.750;17.004;2022-09-24T15:25:51;15.80;99.90
34985;DHT22;21190;58.750;17.004;2022-09-24T15:28:17;15.80;99.90
34985;DHT22;21190;58.750;17.004;2022-09-24T15:30:46;15.80;99.90
34985;DHT22;21190;58.750;17.004;2022-09-24T15:33:13;15.80;99.90
34985;DHT22;21190;58.750;17.004;2022-09-24T15:35:40;15.80;99.90
34985;DHT22;21190;58.750;17.004;2022-09-24T15:38:17;15.70;99.90
34985;DHT22;21190;58.750;17.004;2022-09-24T15:40:44;15.70;99.90
34985;DHT22;21190;58.750;17.004;2022-09-24T15:43:14;15.70;99.90
34985;DHT22;21190;58.750;17.004;2022-09-24T15:45:42;15.70;99.90
34985;DHT22;21190;58.750;17.004;2022-09-24T15:48:09;15.60;99.90
34985;DHT22;21190;58.750;17.004;2022-09-24T15:50:37;15.60;99.90
34985;DHT22;21190;58.750;17.004;2022-09-24T15:53:04;15.50;99.90
34985;DHT22;21190;58.750;17.004;2022-09-24T15:55:33;15.40;99.90
34985;DHT22;21190;58.750;17.004;2022-09-24T15:58:01;15.40;99.90
34985;DHT22;21190;58.750;17.004;2022-09-24T16:00:28;15.40;99.90
34985;DHT22;21190;58.750;17.004;2022-09-24T16:02:55;15.40;99.90
34985;DHT22;21190;58.750;17.004;2022-09-24T16:05:23;15.30;99.90
34985;DHT22;21190;58.750;17.004;2022-09-24T16:07:50;15.30;99.90
34985;DHT22;21190;58.750;17.004;2022-09-24T16:10:17;15.30;99.90
34985;DHT22;21190;58.750;17.004;2022-09-24T16:12:44;15.30;99.90
34985;DHT22;21190;58.750;17.004;2022-09-24T16:15:11;15.30;99.90
34985;DHT22;21190;58.750;17.004;2022-09-24T16:17:38;15.30;99.90
34985;DHT22;21190;58.750;17.004;2022-09-24T16:20:06;15.20;99.90
34985;DHT22;21190;58.750;17.004;2022-09-24T16:22:33;15.20;99.90
34985;DHT22;21190;58.750;17.004;2022-09-24T16:25:00;15.20;99.90
34985;DHT22;21190;58.750;17.004;2022-09-24T16:27:26;15.10;99.90
34985;DHT22;21190;58.750;17.004;2022-09-24T16:29:53;15.10;99.90
34985;DHT22;21190;58.750;17.004;2022-09-24T16:32:20;15.10;99.90
34985;DHT22;21190;58.750;17.004;2022-09-24T16:34:47;15.00;99.90
34985;DHT22;21190;58.750;17.004;2022-09-24T16:37:14;15.00;99.90
34985;DHT22;21190;58.750;17.004;2022-09-24T16:39:42;14.90;99.90
34985;DHT22;21190;58.750;17.004;2022-09-24T16:42:09;14.90;99.90
34985;DHT22;21190;58.750;17.004;2022-09-24T16:44:36;14.80;99.90
34985;DHT22;21190;58.750;17.004;2022-09-24T16:47:03;14.80;99.90
34985;DHT22;21190;58.750;17.004;2022-09-24T16:49:30;14.70;99.90
34985;DHT22;21190;58.750;17.004;2022-09-24T16:51:57;14.60;99.90
34985;DHT22;21190;58.750;17.004;2022-09-24T16:54:24;14.60;99.90
34985;DHT22;21190;58.750;17.004;2022-09-24T16:56:51;14.60;99.90
34985;DHT22;21190;58.750;17.004;2022-09-24T16:59:18;14.50;99.90
34985;DHT22;21190;58.750;17.004;2022-09-24T17:01:45;14.40;99.90
34985;DHT22;21190;58.750;17.004;2022-09-24T17:04:12;14.40;99.90
34985;DHT22;21190;58.750;17.004;2022-09-24T17:06:39;14.30;99.90
34985;DHT22;21190;58.750;17.004;2022-09-24T17:09:06;14.30;99.90
34985;DHT22;21190;58.750;17.004;2022-09-24T17:11:51;14.20;99.90
34985;DHT22;21190;58.750;17.004;2022-09-24T17:14:18;14.20;99.90
34985;DHT22;21190;58.750;17.004;2022-09-24T17:16:45;14.10;99.90
34985;DHT22;21190;58.750;17.004;2022-09-24T17:19:12;14.10;99.90
34985;DHT22;21190;58.750;17.004;2022-09-24T17:21:39;14.00;99.90
34985;DHT22;21190;58.750;17.004;2022-09-24T17:24:07;14.00;99.90
34985;DHT22;21190;58.750;17.004;2022-09-24T17:26:34;13.90;99.90
34985;DHT22;21190;58.750;17.004;2022-09-24T17:29:01;13.80;99.90
34985;DHT22;21190;58.750;17.004;2022-09-24T17:31:28;13.80;99.90